createdAt,value
2023-12-16T00:02:09.214Z,5.60
2023-12-16T00:04:41.813Z,5.63
2023-12-16T00:07:12.463Z,5.58
2023-12-16T00:09:45.646Z,5.57
2023-12-16T00:12:17.175Z,5.64
2023-12-16T00:14:48.101Z,5.59
2023-12-16T00:17:18.643Z,5.59
2023-12-16T00:19:49.229Z,5.63
2023-12-16T00:22:19.937Z,5.64
2023-12-16T00:24:53.102Z,5.68
2023-12-16T00:27:24.020Z,5.68
2023-12-16T00:29:54.627Z,5.64
2023-12-16T00:32:25.713Z,5.67
2023-12-16T00:34:56.489Z,5.72
2023-12-16T00:37:27.136Z,5.75
2023-12-16T00:40:00.497Z,5.75
2023-12-16T00:42:31.489Z,5.75
2023-12-16T00:45:02.329Z,5.74
2023-12-16T00:47:32.927Z,5.70
2023-12-16T00:50:03.575Z,5.67
2023-12-16T00:52:34.146Z,5.67
2023-12-16T00:55:07.783Z,5.67
2023-12-16T00:57:39.531Z,5.67
2023-12-16T01:00:11.474Z,5.66
2023-12-16T01:02:42.035Z,5.67
2023-12-16T01:05:13.084Z,5.71
2023-12-16T01:07:43.889Z,5.66
2023-12-16T01:10:17.326Z,5.70
2023-12-16T01:12:49.079Z,5.71
2023-12-16T01:15:19.861Z,5.69
2023-12-16T01:17:50.598Z,5.67
2023-12-16T01:20:21.474Z,5.68
2023-12-16T01:22:52.315Z,5.66
2023-12-16T01:25:25.478Z,5.64
2023-12-16T01:27:56.094Z,5.60
2023-12-16T01:30:27.330Z,5.64
2023-12-16T01:32:58.291Z,5.64
2023-12-16T01:35:28.985Z,5.60
2023-12-16T01:37:59.565Z,5.46
2023-12-16T01:40:32.652Z,5.40
2023-12-16T01:43:07.974Z,5.41
2023-12-16T01:45:38.968Z,5.42
2023-12-16T01:48:12.150Z,5.49
2023-12-16T01:50:43.532Z,5.58
2023-12-16T01:53:14.363Z,5.59
2023-12-16T01:55:48.045Z,5.65
2023-12-16T01:58:19.351Z,5.68
2023-12-16T02:00:51.385Z,5.71
2023-12-16T02:03:23.626Z,5.73
2023-12-16T02:05:54.174Z,5.75
2023-12-16T02:08:24.817Z,5.70
2023-12-16T02:10:57.966Z,5.55
2023-12-16T02:13:28.661Z,5.55
2023-12-16T02:15:59.279Z,5.65
2023-12-16T02:18:30.962Z,5.68
2023-12-16T02:21:02.498Z,5.70
2023-12-16T02:23:35.626Z,5.70
2023-12-16T02:26:06.251Z,5.66
2023-12-16T02:28:37.030Z,5.70
2023-12-16T02:31:08.474Z,5.72
2023-12-16T02:33:39.882Z,5.76
2023-12-16T02:36:11.865Z,5.80
2023-12-16T02:38:45.047Z,5.81
2023-12-16T02:41:15.581Z,5.75
2023-12-16T02:43:46.142Z,5.65
2023-12-16T02:46:16.812Z,5.63
2023-12-16T02:48:47.553Z,5.63
2023-12-16T02:51:22.104Z,5.56
2023-12-16T02:53:55.285Z,5.50
2023-12-16T02:56:25.814Z,5.41
2023-12-16T02:58:56.320Z,5.33
2023-12-16T03:01:27.647Z,5.24
2023-12-16T03:03:58.298Z,5.04
2023-12-16T03:06:28.910Z,4.83
2023-12-16T03:09:02.048Z,4.69
2023-12-16T03:11:32.696Z,4.58
2023-12-16T03:14:03.328Z,4.58
2023-12-16T03:16:36.062Z,4.51
2023-12-16T03:19:06.911Z,4.64
2023-12-16T03:21:38.214Z,4.69
2023-12-16T03:24:14.623Z,4.72
2023-12-16T03:26:46.597Z,4.74
2023-12-16T03:29:17.226Z,4.70
2023-12-16T03:31:47.732Z,4.58
2023-12-16T03:34:18.370Z,4.36
2023-12-16T03:36:48.960Z,4.12
2023-12-16T03:39:22.058Z,3.96
2023-12-16T03:41:52.594Z,3.91
2023-12-16T03:44:23.228Z,3.87
2023-12-16T03:46:53.757Z,3.78
2023-12-16T03:49:24.361Z,3.74
2023-12-16T03:51:57.353Z,3.75
2023-12-16T03:54:30.620Z,3.76
2023-12-16T03:57:01.291Z,3.79
2023-12-16T03:59:31.913Z,3.89
2023-12-16T04:02:02.478Z,3.91
2023-12-16T04:04:34.389Z,3.93
2023-12-16T04:07:05.255Z,3.91
2023-12-16T04:09:38.420Z,3.83
2023-12-16T04:12:10.624Z,3.83
2023-12-16T04:14:42.246Z,3.91
2023-12-16T04:17:12.839Z,4.02
2023-12-16T04:19:52.274Z,4.08
2023-12-16T04:22:23.511Z,4.11
2023-12-16T04:24:59.223Z,4.15
2023-12-16T04:27:30.712Z,4.25
2023-12-16T04:30:01.300Z,4.33
2023-12-16T04:32:31.870Z,4.33
2023-12-16T04:35:02.512Z,4.43
2023-12-16T04:37:33.097Z,4.41
2023-12-16T04:40:06.665Z,4.50
2023-12-16T04:42:37.202Z,4.58
2023-12-16T04:45:09.601Z,4.63
2023-12-16T04:47:41.034Z,4.69
2023-12-16T04:50:12.679Z,4.66
2023-12-16T04:52:43.467Z,4.67
2023-12-16T04:55:17.043Z,4.65
2023-12-16T04:57:47.652Z,4.51
2023-12-16T05:00:19.360Z,4.57
2023-12-16T05:02:49.921Z,4.44
2023-12-16T05:05:20.625Z,4.38
2023-12-16T05:07:51.171Z,4.48
2023-12-16T05:10:24.630Z,4.51
2023-12-16T05:12:55.211Z,4.51
2023-12-16T05:15:25.796Z,4.58
2023-12-16T05:17:56.339Z,4.63
2023-12-16T05:20:26.921Z,4.61
2023-12-16T05:22:57.902Z,4.46
2023-12-16T05:25:31.965Z,4.47
2023-12-16T05:28:03.308Z,4.56
2023-12-16T05:30:33.961Z,4.60
2023-12-16T05:33:04.608Z,4.61
2023-12-16T05:35:35.430Z,4.60
2023-12-16T05:38:05.990Z,4.59
2023-12-16T05:40:39.242Z,4.62
2023-12-16T05:43:10.066Z,4.57
2023-12-16T05:45:40.650Z,4.61
2023-12-16T05:48:09.153Z,4.64
2023-12-16T05:50:39.730Z,4.59
2023-12-16T05:53:10.267Z,4.62
2023-12-16T05:55:45.392Z,4.60
2023-12-16T05:58:17.900Z,4.55
2023-12-16T06:00:50.148Z,4.58
2023-12-16T06:03:20.756Z,4.53
2023-12-16T06:05:51.339Z,4.45
2023-12-16T06:08:22.782Z,4.41
2023-12-16T06:10:55.900Z,4.49
2023-12-16T06:13:26.461Z,4.45
2023-12-16T06:16:07.776Z,4.50
2023-12-16T06:18:47.303Z,4.46
2023-12-16T06:21:18.020Z,4.43
2023-12-16T06:23:48.603Z,4.42
2023-12-16T06:26:21.923Z,4.44
2023-12-16T06:28:52.556Z,4.46
2023-12-16T06:31:23.560Z,4.35
2023-12-16T06:33:54.286Z,4.40
2023-12-16T06:36:24.902Z,4.42
2023-12-16T06:38:55.365Z,4.37
2023-12-16T06:41:30.575Z,4.40
2023-12-16T06:44:01.605Z,4.31
2023-12-16T06:46:32.356Z,4.36
2023-12-16T06:49:03.236Z,4.25
2023-12-16T06:51:33.814Z,4.30
2023-12-16T06:54:04.829Z,4.28
2023-12-16T06:56:37.964Z,4.27
2023-12-16T06:59:08.627Z,4.23
2023-12-16T07:01:39.211Z,4.24
2023-12-16T07:04:09.969Z,4.17
2023-12-16T07:06:40.723Z,4.15
2023-12-16T07:09:11.307Z,4.20
2023-12-16T07:11:44.533Z,4.30
2023-12-16T07:14:15.091Z,4.31
2023-12-16T07:16:45.713Z,4.31
2023-12-16T07:19:16.316Z,4.41
2023-12-16T07:21:46.854Z,4.44
2023-12-16T07:24:17.334Z,4.38
2023-12-16T07:26:50.549Z,4.40
2023-12-16T07:29:22.127Z,4.49
2023-12-16T07:31:50.346Z,4.44
2023-12-16T07:34:22.256Z,4.42
2023-12-16T07:36:53.049Z,4.51
2023-12-16T07:39:23.669Z,4.57
2023-12-16T07:41:56.794Z,4.65
2023-12-16T07:44:28.445Z,4.72
2023-12-16T07:46:59.029Z,4.72
2023-12-16T07:49:29.690Z,4.68
2023-12-16T07:52:02.377Z,4.72
2023-12-16T07:54:32.990Z,4.74
2023-12-16T07:57:06.304Z,4.81
2023-12-16T07:59:36.841Z,4.90
2023-12-16T08:02:09.621Z,4.93
2023-12-16T08:04:40.369Z,5.01
2023-12-16T08:07:11.102Z,5.05
2023-12-16T08:09:42.397Z,5.09
2023-12-16T08:12:15.773Z,5.18
2023-12-16T08:14:46.400Z,5.18
2023-12-16T08:17:16.960Z,5.09
2023-12-16T08:19:48.869Z,5.03
2023-12-16T08:22:19.638Z,5.10
2023-12-16T08:24:50.178Z,5.09
2023-12-16T08:27:23.350Z,5.05
2023-12-16T08:29:54.426Z,5.11
2023-12-16T08:32:25.015Z,5.20
2023-12-16T08:34:55.737Z,5.24
2023-12-16T08:37:27.743Z,5.24
2023-12-16T08:39:58.483Z,5.24
2023-12-16T08:42:31.612Z,5.30
2023-12-16T08:45:02.274Z,5.39
2023-12-16T08:47:32.873Z,5.45
2023-12-16T08:50:04.638Z,5.50
2023-12-16T08:52:35.813Z,5.45
2023-12-16T08:55:07.572Z,5.44
2023-12-16T08:57:41.286Z,5.50
2023-12-16T09:00:13.285Z,5.45
2023-12-16T09:02:43.996Z,5.53
2023-12-16T09:05:14.657Z,5.64
2023-12-16T09:07:45.278Z,5.73
2023-12-16T09:10:16.248Z,5.92
2023-12-16T09:12:49.586Z,6.05
2023-12-16T09:15:20.218Z,6.17
2023-12-16T09:17:51.053Z,6.24
2023-12-16T09:20:21.863Z,6.35
2023-12-16T09:22:52.476Z,6.45
2023-12-16T09:25:23.002Z,6.71
2023-12-16T09:27:56.243Z,6.76
2023-12-16T09:30:26.825Z,6.98
2023-12-16T09:32:57.436Z,7.06
2023-12-16T09:35:28.262Z,6.89
2023-12-16T09:37:58.992Z,7.09
2023-12-16T09:40:29.699Z,7.11
2023-12-16T09:43:15.038Z,7.26
2023-12-16T09:45:48.341Z,7.41
2023-12-16T09:48:21.026Z,7.42
2023-12-16T09:50:51.733Z,7.56
2023-12-16T09:53:23.056Z,7.45
2023-12-16T09:55:55.035Z,7.57
2023-12-16T09:58:28.910Z,7.73
2023-12-16T10:01:00.108Z,7.74
2023-12-16T10:03:31.472Z,7.80
2023-12-16T10:06:02.829Z,7.95
2023-12-16T10:08:33.389Z,8.20
2023-12-16T10:11:12.293Z,7.87
2023-12-16T10:14:05.087Z,8.11
2023-12-16T10:16:36.476Z,7.99
2023-12-16T10:19:07.525Z,7.93
2023-12-16T10:21:38.127Z,7.97
2023-12-16T10:24:09.471Z,8.00
2023-12-16T10:26:46.638Z,8.09
2023-12-16T10:29:23.506Z,8.19
2023-12-16T10:31:54.222Z,8.23
2023-12-16T10:34:25.630Z,7.92
2023-12-16T10:36:56.425Z,7.85
2023-12-16T10:39:26.935Z,7.50
2023-12-16T10:41:57.478Z,7.75
2023-12-16T10:44:30.950Z,8.10
2023-12-16T10:47:02.108Z,8.20
2023-12-16T10:49:34.193Z,8.33
2023-12-16T10:52:09.856Z,8.29
2023-12-16T10:54:44.626Z,8.52
2023-12-16T10:57:30.599Z,8.86
2023-12-16T11:00:09.567Z,9.10
2023-12-16T11:02:59.380Z,9.21
2023-12-16T11:05:34.295Z,9.35
2023-12-16T11:08:06.376Z,9.49
2023-12-16T11:10:37.345Z,9.62
2023-12-16T11:13:09.178Z,9.46
2023-12-16T11:15:42.508Z,9.30
2023-12-16T11:18:18.718Z,9.23
2023-12-16T11:20:54.441Z,9.29
2023-12-16T11:23:29.377Z,9.27
2023-12-16T11:26:04.642Z,9.37
2023-12-16T11:28:35.350Z,9.43
2023-12-16T11:31:09.030Z,9.51
2023-12-16T11:33:49.916Z,9.49
2023-12-16T11:36:21.323Z,9.39
2023-12-16T11:38:51.852Z,9.54
2023-12-16T11:41:49.558Z,9.59
2023-12-16T11:44:20.264Z,9.40
2023-12-16T11:46:53.334Z,9.45
2023-12-16T11:49:23.970Z,9.41
2023-12-16T11:51:55.763Z,9.43
2023-12-16T11:54:27.125Z,9.20
2023-12-16T11:56:57.606Z,9.04
2023-12-16T11:59:28.121Z,9.09
2023-12-16T12:02:01.403Z,9.01
2023-12-16T12:04:32.085Z,9.10
2023-12-16T12:07:02.769Z,8.91
2023-12-16T12:09:33.826Z,9.07
2023-12-16T12:12:05.871Z,9.15
2023-12-16T12:14:37.123Z,9.26
2023-12-16T12:17:10.252Z,9.41
2023-12-16T12:19:44.138Z,9.41
2023-12-16T12:22:15.421Z,9.54
2023-12-16T12:24:46.011Z,9.85
2023-12-16T12:27:16.777Z,10.18
2023-12-16T12:30:01.127Z,10.44
2023-12-16T12:32:35.635Z,10.56
2023-12-16T12:35:09.328Z,10.56
2023-12-16T12:37:41.664Z,10.68
2023-12-16T12:40:20.566Z,10.38
2023-12-16T12:42:52.568Z,10.26
2023-12-16T12:45:30.017Z,9.69
2023-12-16T12:48:14.885Z,9.56
2023-12-16T12:50:48.714Z,9.38
2023-12-16T12:53:24.153Z,9.22
2023-12-16T12:55:58.101Z,8.84
2023-12-16T12:58:30.831Z,8.51
2023-12-16T13:01:03.511Z,8.10
2023-12-16T13:03:37.779Z,7.87
2023-12-16T13:06:09.778Z,7.69
2023-12-16T13:08:41.894Z,7.57
2023-12-16T13:11:12.487Z,7.45
2023-12-16T13:13:42.977Z,7.47
2023-12-16T13:16:15.356Z,7.52
2023-12-16T13:18:53.768Z,7.51
2023-12-16T13:21:24.712Z,7.54
2023-12-16T13:23:56.364Z,7.69
2023-12-16T13:26:28.061Z,7.94
2023-12-16T13:28:58.557Z,8.12
2023-12-16T13:31:29.185Z,8.20
2023-12-16T13:34:02.909Z,8.27
2023-12-16T13:36:49.596Z,8.56
2023-12-16T13:39:21.879Z,8.71
2023-12-16T13:41:52.388Z,8.93
2023-12-16T13:44:23.607Z,9.30
2023-12-16T13:46:54.996Z,9.39
2023-12-16T13:49:28.163Z,9.51
2023-12-16T13:51:58.738Z,8.95
2023-12-16T13:54:29.237Z,8.46
2023-12-16T13:56:59.851Z,8.46
2023-12-16T13:59:30.615Z,8.39
2023-12-16T14:02:01.357Z,8.49
2023-12-16T14:04:34.450Z,8.42
2023-12-16T14:07:05.279Z,8.08
2023-12-16T14:09:35.859Z,7.94
2023-12-16T14:12:06.723Z,7.41
2023-12-16T14:14:37.856Z,7.26
2023-12-16T14:17:08.699Z,7.26
2023-12-16T14:19:42.753Z,6.89
2023-12-16T14:22:13.309Z,6.85
2023-12-16T14:24:43.871Z,6.73
2023-12-16T14:27:14.421Z,6.69
2023-12-16T14:29:45.000Z,6.54
2023-12-16T14:32:15.501Z,6.44
2023-12-16T14:34:48.717Z,6.37
2023-12-16T14:37:19.362Z,6.38
2023-12-16T14:39:49.982Z,6.32
2023-12-16T14:42:20.923Z,6.25
2023-12-16T14:44:51.447Z,6.26
2023-12-16T14:47:22.020Z,6.19
2023-12-16T14:49:55.147Z,6.10
2023-12-16T14:52:25.753Z,5.92
2023-12-16T14:54:57.146Z,5.78
2023-12-16T14:57:27.707Z,5.63
2023-12-16T14:59:59.861Z,5.53
2023-12-16T15:02:30.459Z,5.42
2023-12-16T15:05:03.556Z,5.30
2023-12-16T15:07:34.343Z,5.21
2023-12-16T15:10:04.895Z,5.11
2023-12-16T15:12:35.469Z,4.90
2023-12-16T15:15:06.260Z,4.76
2023-12-16T15:17:37.135Z,4.60
2023-12-16T15:20:11.999Z,4.45
2023-12-16T15:22:42.913Z,4.38
2023-12-16T15:25:13.548Z,4.30
2023-12-16T15:27:44.225Z,3.94
2023-12-16T15:30:16.183Z,3.94
2023-12-16T15:32:46.829Z,3.89
2023-12-16T15:35:20.762Z,3.83
2023-12-16T15:37:51.527Z,3.70
2023-12-16T15:40:22.025Z,3.62
2023-12-16T15:42:52.618Z,3.49
2023-12-16T15:45:23.172Z,3.41
2023-12-16T15:47:54.746Z,3.28
2023-12-16T15:50:28.092Z,3.25
2023-12-16T15:52:58.616Z,3.13
2023-12-16T15:55:29.220Z,3.06
2023-12-16T15:58:00.187Z,2.91
2023-12-16T16:00:30.920Z,2.97
2023-12-16T16:03:02.295Z,2.84
2023-12-16T16:05:35.680Z,2.79
2023-12-16T16:08:07.051Z,3.00
2023-12-16T16:10:38.291Z,3.03
2023-12-16T16:13:13.649Z,3.18
2023-12-16T16:15:45.678Z,3.06
2023-12-16T16:18:16.653Z,2.93
2023-12-16T16:20:50.658Z,2.82
2023-12-16T16:23:21.226Z,2.79
2023-12-16T16:25:51.795Z,2.59
2023-12-16T16:28:22.323Z,2.62
2023-12-16T16:30:53.855Z,2.63
2023-12-16T16:33:24.961Z,2.54
2023-12-16T16:35:58.301Z,2.48
2023-12-16T16:38:30.039Z,2.39
2023-12-16T16:41:01.464Z,2.38
2023-12-16T16:43:32.196Z,2.34
2023-12-16T16:46:03.354Z,2.30
2023-12-16T16:48:33.902Z,2.27
2023-12-16T16:51:07.930Z,2.27
2023-12-16T16:53:38.949Z,2.06
2023-12-16T16:56:10.840Z,2.00
2023-12-16T16:58:44.082Z,1.91
2023-12-16T17:01:14.650Z,2.13
2023-12-16T17:03:45.241Z,2.11
2023-12-16T17:06:18.609Z,2.01
2023-12-16T17:08:49.294Z,1.97
2023-12-16T17:11:20.845Z,1.93
2023-12-16T17:13:51.357Z,1.84
2023-12-16T17:16:22.195Z,1.71
2023-12-16T17:18:52.962Z,1.70
2023-12-16T17:21:26.191Z,1.66
2023-12-16T17:23:56.920Z,1.59
2023-12-16T17:26:27.472Z,1.56
2023-12-16T17:28:59.034Z,1.53
2023-12-16T17:31:29.595Z,1.50
2023-12-16T17:34:00.299Z,1.39
2023-12-16T17:36:33.485Z,1.36
2023-12-16T17:39:04.093Z,1.30
2023-12-16T17:41:35.993Z,1.39
2023-12-16T17:44:07.552Z,1.44
2023-12-16T17:46:38.300Z,1.39
2023-12-16T17:49:09.008Z,1.21
2023-12-16T17:51:42.813Z,1.21
2023-12-16T17:54:13.407Z,1.54
2023-12-16T17:56:44.636Z,1.59
2023-12-16T17:59:15.815Z,1.48
2023-12-16T18:01:49.864Z,1.43
2023-12-16T18:04:21.093Z,1.31
2023-12-16T18:06:55.159Z,1.28
2023-12-16T18:09:25.676Z,1.25
2023-12-16T18:11:58.706Z,1.22
2023-12-16T18:14:29.524Z,1.19
2023-12-16T18:17:00.057Z,1.12
2023-12-16T18:19:30.979Z,1.07
2023-12-16T18:22:04.137Z,1.05
2023-12-16T18:24:34.689Z,1.08
2023-12-16T18:27:05.251Z,0.94
2023-12-16T18:29:39.393Z,0.97
2023-12-16T18:32:11.010Z,0.91
2023-12-16T18:34:41.603Z,0.84
2023-12-16T18:37:14.851Z,0.80
2023-12-16T18:39:45.351Z,0.75
2023-12-16T18:42:15.924Z,0.70
2023-12-16T18:44:46.631Z,0.80
2023-12-16T18:47:17.174Z,0.75
2023-12-16T18:49:47.761Z,0.76
2023-12-16T18:52:20.897Z,0.88
2023-12-16T18:54:54.143Z,0.91
2023-12-16T18:57:24.717Z,1.02
2023-12-16T18:59:55.421Z,1.06
2023-12-16T19:02:27.735Z,0.95
2023-12-16T19:04:58.482Z,0.86
2023-12-16T19:07:31.800Z,0.81
2023-12-16T19:10:05.904Z,0.69
2023-12-16T19:12:36.775Z,0.77
2023-12-16T19:15:07.941Z,0.75
2023-12-16T19:17:38.834Z,0.70
2023-12-16T19:20:11.314Z,0.72
2023-12-16T19:22:44.991Z,0.68
2023-12-16T19:25:15.513Z,0.70
2023-12-16T19:27:46.109Z,0.55
2023-12-16T19:30:16.983Z,0.39
2023-12-16T19:32:47.691Z,0.45
2023-12-16T19:35:18.395Z,0.46
2023-12-16T19:37:52.383Z,0.46
2023-12-16T19:40:23.025Z,0.46
2023-12-16T19:42:53.626Z,0.42
2023-12-16T19:45:24.135Z,0.44
2023-12-16T19:47:54.768Z,0.33
2023-12-16T19:50:25.386Z,0.36
2023-12-16T19:52:58.524Z,0.35
2023-12-16T19:55:30.179Z,0.31
2023-12-16T19:58:00.938Z,0.31
2023-12-16T20:00:31.601Z,0.28
2023-12-16T20:03:02.336Z,0.24
2023-12-16T20:05:33.058Z,0.25
2023-12-16T20:08:06.247Z,0.30
2023-12-16T20:10:40.920Z,0.37
2023-12-16T20:13:11.462Z,0.38
2023-12-16T20:15:42.322Z,0.40
2023-12-16T20:18:15.724Z,0.40
2023-12-16T20:20:46.966Z,0.39
2023-12-16T20:23:20.214Z,0.36
2023-12-16T20:25:50.900Z,0.33
2023-12-16T20:28:21.630Z,0.32
2023-12-16T20:30:52.219Z,0.33
2023-12-16T20:33:23.293Z,0.30
2023-12-16T20:35:54.076Z,0.21
2023-12-16T20:38:39.634Z,0.15
2023-12-16T20:41:13.291Z,0.18
2023-12-16T20:43:43.971Z,0.19
2023-12-16T20:46:15.338Z,0.19
2023-12-16T20:48:46.518Z,0.13
2023-12-16T20:51:17.178Z,0.16
2023-12-16T20:53:50.311Z,-0.01
2023-12-16T20:56:21.203Z,0.11
2023-12-16T20:58:51.695Z,0.10
2023-12-16T21:01:22.192Z,0.15
2023-12-16T21:03:52.714Z,0.13
2023-12-16T21:06:23.531Z,0.01
2023-12-16T21:08:56.718Z,0.08
2023-12-16T21:11:27.304Z,0.07
2023-12-16T21:13:57.908Z,0.11
2023-12-16T21:16:28.591Z,0.05
2023-12-16T21:18:59.531Z,0.08
2023-12-16T21:21:30.117Z,0.11
2023-12-16T21:24:03.284Z,0.15
2023-12-16T21:26:33.809Z,0.16
2023-12-16T21:29:04.388Z,0.18
2023-12-16T21:31:34.959Z,0.27
2023-12-16T21:34:05.700Z,0.35
2023-12-16T21:36:36.269Z,0.53
2023-12-16T21:39:09.530Z,0.75
2023-12-16T21:41:40.195Z,0.92
2023-12-16T21:44:10.813Z,0.89
2023-12-16T21:46:41.349Z,1.06
2023-12-16T21:49:12.076Z,1.10
2023-12-16T21:51:42.686Z,1.04
2023-12-16T21:54:16.157Z,0.99
2023-12-16T21:56:46.820Z,0.87
2023-12-16T21:59:17.536Z,0.87
2023-12-16T22:01:48.231Z,0.98
2023-12-16T22:04:18.833Z,1.05
2023-12-16T22:06:49.409Z,1.09
2023-12-16T22:09:22.921Z,1.06
2023-12-16T22:11:53.697Z,0.93
2023-12-16T22:14:24.601Z,0.74
2023-12-16T22:16:55.081Z,0.64
2023-12-16T22:19:25.736Z,0.86
2023-12-16T22:21:56.323Z,1.02
2023-12-16T22:24:29.435Z,1.02
2023-12-16T22:27:00.185Z,1.02
2023-12-16T22:29:30.698Z,1.01
2023-12-16T22:32:01.231Z,0.93
2023-12-16T22:34:32.773Z,0.86
2023-12-16T22:37:03.909Z,0.98
2023-12-16T22:39:37.059Z,0.96
2023-12-16T22:42:08.346Z,0.81
2023-12-16T22:44:39.300Z,0.86
2023-12-16T22:47:09.946Z,0.83
2023-12-16T22:49:40.735Z,0.88
2023-12-16T22:52:11.546Z,0.85
2023-12-16T22:54:44.733Z,0.71
2023-12-16T22:57:15.344Z,0.74
2023-12-16T22:59:46.075Z,0.75
2023-12-16T23:02:16.727Z,0.78
2023-12-16T23:04:47.295Z,0.68
2023-12-16T23:07:17.971Z,0.60
2023-12-16T23:09:51.040Z,0.53
2023-12-16T23:12:21.583Z,0.50
2023-12-16T23:14:52.057Z,0.47
2023-12-16T23:17:22.908Z,0.44
2023-12-16T23:19:53.729Z,0.35
2023-12-16T23:22:24.315Z,0.17
2023-12-16T23:24:57.588Z,0.07
2023-12-16T23:27:28.176Z,-0.07
2023-12-16T23:29:59.857Z,-0.08
2023-12-16T23:32:30.518Z,-0.15
2023-12-16T23:35:01.346Z,-0.19
2023-12-16T23:37:31.929Z,-0.28
2023-12-16T23:40:05.214Z,-0.34
2023-12-16T23:42:35.787Z,-0.45
2023-12-16T23:45:06.669Z,-0.48
2023-12-16T23:47:37.421Z,-0.44
2023-12-16T23:50:09.207Z,-0.43
2023-12-16T23:52:39.768Z,-0.40
2023-12-16T23:55:14.235Z,-0.41
2023-12-16T23:57:45.120Z,-0.38
